createdAt,value
2022-09-04T00:00:15.624Z,74.41
2022-09-04T00:05:23.959Z,75.17
2022-09-04T00:10:32.491Z,74.79
2022-09-04T00:15:43.406Z,74.77
2022-09-04T00:20:51.787Z,76.17
2022-09-04T00:26:02.790Z,76.17
2022-09-04T00:31:18.501Z,77.01
2022-09-04T00:36:25.523Z,77.83
2022-09-04T00:41:31.808Z,77.44
2022-09-04T00:46:53.314Z,77.74
2022-09-04T00:52:07.133Z,78.81
2022-09-04T00:57:46.439Z,78.36
2022-09-04T01:03:15.497Z,79.97
2022-09-04T01:08:31.251Z,78.87
2022-09-04T01:13:41.547Z,79.14
2022-09-04T01:18:53.403Z,79.12
2022-09-04T01:24:32.811Z,79.43
2022-09-04T01:29:47.895Z,78.17
2022-09-04T01:34:59.718Z,78.21
2022-09-04T01:40:18.313Z,79.21
2022-09-04T01:45:31.278Z,80.51
2022-09-04T01:50:36.141Z,79.79
2022-09-04T01:55:45.900Z,81.03
2022-09-04T02:01:01.110Z,80.50
2022-09-04T02:06:13.778Z,81.08
2022-09-04T02:11:19.447Z,80.59
2022-09-04T02:16:42.849Z,80.33
2022-09-04T02:21:52.475Z,80.39
2022-09-04T02:27:01.902Z,78.52
2022-09-04T02:32:12.556Z,79.41
2022-09-04T02:37:23.390Z,80.86
2022-09-04T02:42:32.556Z,80.33
2022-09-04T02:47:45.934Z,79.96
2022-09-04T02:53:02.301Z,82.21
2022-09-04T02:58:18.116Z,82.87
2022-09-04T03:03:29.012Z,83.76
2022-09-04T03:08:37.760Z,82.35
2022-09-04T03:13:47.782Z,84.44
2022-09-04T03:19:05.194Z,86.69
2022-09-04T03:24:18.950Z,81.92
2022-09-04T03:29:31.517Z,80.17
2022-09-04T03:34:45.097Z,82.72
2022-09-04T03:40:02.300Z,84.15
2022-09-04T03:45:19.800Z,82.24
2022-09-04T03:50:32.228Z,83.05
2022-09-04T03:56:08.617Z,85.47
2022-09-04T04:01:25.189Z,83.65
2022-09-04T04:06:38.027Z,84.96
2022-09-04T04:11:55.584Z,84.64
2022-09-04T04:17:07.726Z,86.95
2022-09-04T04:22:42.396Z,87.08
2022-09-04T04:28:00.741Z,86.82
2022-09-04T04:33:19.434Z,87.10
2022-09-04T04:38:48.154Z,87.49
2022-09-04T04:44:06.070Z,86.60
2022-09-04T04:49:34.172Z,84.87
2022-09-04T04:54:53.970Z,86.35
2022-09-04T05:00:08.301Z,84.51
2022-09-04T05:05:17.607Z,82.17
2022-09-04T05:10:30.963Z,82.01
2022-09-04T05:16:05.003Z,81.30
2022-09-04T05:21:14.047Z,82.09
2022-09-04T05:26:27.584Z,86.21
2022-09-04T05:31:40.265Z,82.68
2022-09-04T05:36:52.322Z,84.59
2022-09-04T05:42:07.961Z,82.25
2022-09-04T05:47:20.317Z,83.25
2022-09-04T05:52:42.928Z,86.32
2022-09-04T05:58:02.014Z,85.88
2022-09-04T06:03:33.761Z,87.96
2022-09-04T06:08:53.745Z,87.32
2022-09-04T06:14:14.505Z,87.02
2022-09-04T06:19:35.174Z,84.29
2022-09-04T06:25:13.646Z,82.74
2022-09-04T06:30:19.047Z,85.53
2022-09-04T06:35:47.202Z,86.09
2022-09-04T06:41:02.234Z,86.46
2022-09-04T06:46:21.824Z,85.31
2022-09-04T06:51:42.296Z,85.94
2022-09-04T06:57:03.586Z,88.16
2022-09-04T07:02:22.067Z,92.32
2022-09-04T07:07:32.358Z,89.19
2022-09-04T07:12:56.657Z,91.67
2022-09-04T07:18:10.481Z,94.93
2022-09-04T07:23:25.561Z,94.32
2022-09-04T07:28:43.038Z,91.78
2022-09-04T07:33:56.535Z,93.35
2022-09-04T07:39:06.616Z,90.48
2022-09-04T07:44:17.053Z,90.21
2022-09-04T07:49:30.839Z,90.24
2022-09-04T07:54:59.069Z,92.67
2022-09-04T08:00:09.580Z,90.53
2022-09-04T08:05:24.497Z,90.02
2022-09-04T08:10:32.449Z,90.33
2022-09-04T08:15:43.940Z,87.88
2022-09-04T08:20:56.839Z,87.05
2022-09-04T08:26:14.549Z,84.58
2022-09-04T08:31:26.472Z,85.66
2022-09-04T08:36:35.998Z,84.25
2022-09-04T08:42:04.948Z,82.02
2022-09-04T08:47:35.594Z,82.21
2022-09-04T08:53:10.299Z,79.32
2022-09-04T08:58:47.952Z,75.92
2022-09-04T09:04:29.032Z,74.90
2022-09-04T09:10:11.502Z,72.06
2022-09-04T09:15:39.990Z,72.72
2022-09-04T09:20:50.656Z,69.95
2022-09-04T09:26:06.660Z,68.66
2022-09-04T09:32:01.640Z,67.34
2022-09-04T09:37:45.586Z,65.65
2022-09-04T09:43:30.148Z,64.59
2022-09-04T09:48:57.017Z,63.67
2022-09-04T09:54:31.645Z,61.57
2022-09-04T10:00:07.030Z,62.88
2022-09-04T10:06:01.152Z,60.41
2022-09-04T10:11:52.719Z,57.93
2022-09-04T10:17:25.015Z,57.53
2022-09-04T10:22:57.783Z,56.12
2022-09-04T10:28:30.161Z,56.67
2022-09-04T10:33:49.928Z,53.77
2022-09-04T10:39:26.337Z,51.88
2022-09-04T10:45:17.391Z,52.70
2022-09-04T10:50:41.325Z,52.03
2022-09-04T10:56:00.132Z,50.73
2022-09-04T11:01:23.688Z,52.61
2022-09-04T11:06:49.516Z,51.00
2022-09-04T11:12:31.564Z,50.02
2022-09-04T11:18:10.309Z,51.06
2022-09-04T11:24:06.939Z,47.37
2022-09-04T11:29:31.715Z,47.77
2022-09-04T11:35:19.404Z,49.40
2022-09-04T11:40:55.361Z,49.38
2022-09-04T11:46:26.237Z,47.54
2022-09-04T11:52:04.024Z,47.82
2022-09-04T11:57:16.073Z,49.23
2022-09-04T12:02:34.231Z,48.27
2022-09-04T12:07:59.443Z,48.74
2022-09-04T12:13:32.031Z,48.81
2022-09-04T12:19:21.228Z,49.16
2022-09-04T12:24:52.217Z,46.23
2022-09-04T12:30:06.801Z,45.67
2022-09-04T12:35:36.814Z,43.63
2022-09-04T12:40:49.103Z,43.29
2022-09-04T12:46:06.070Z,44.67
2022-09-04T12:51:16.851Z,43.72
2022-09-04T12:56:29.650Z,43.86
2022-09-04T13:01:45.094Z,42.51
2022-09-04T13:07:02.019Z,40.86
2022-09-04T13:12:21.808Z,41.08
2022-09-04T13:17:34.970Z,42.30
2022-09-04T13:22:52.856Z,41.57
2022-09-04T13:28:11.348Z,41.19
2022-09-04T13:33:40.044Z,40.61
2022-09-04T13:39:22.543Z,39.01
2022-09-04T13:44:55.567Z,39.95
2022-09-04T13:50:08.619Z,39.21
2022-09-04T13:55:18.107Z,40.16
2022-09-04T14:00:22.518Z,39.95
2022-09-04T14:05:27.268Z,41.14
2022-09-04T14:10:47.021Z,40.60
2022-09-04T14:16:03.964Z,40.95
2022-09-04T14:21:18.673Z,40.76
2022-09-04T14:26:35.776Z,39.94
2022-09-04T14:31:46.838Z,40.31
2022-09-04T14:37:00.455Z,39.21
2022-09-04T14:42:35.723Z,40.07
2022-09-04T14:47:45.498Z,39.93
2022-09-04T14:52:55.817Z,38.89
2022-09-04T14:58:06.410Z,39.23
2022-09-04T15:03:19.292Z,37.75
2022-09-04T15:08:28.851Z,34.46
2022-09-04T15:13:46.746Z,34.73
2022-09-04T15:19:00.059Z,32.47
2022-09-04T15:24:26.584Z,34.08
2022-09-04T15:29:39.643Z,32.12
2022-09-04T15:34:44.879Z,33.71
2022-09-04T15:39:59.870Z,33.13
2022-09-04T15:45:11.998Z,32.95
2022-09-04T15:50:22.553Z,34.14
2022-09-04T15:55:28.800Z,34.39
2022-09-04T16:00:36.764Z,33.69
2022-09-04T16:05:45.211Z,33.75
2022-09-04T16:10:57.614Z,34.91
2022-09-04T16:16:07.723Z,35.32
2022-09-04T16:21:21.373Z,35.83
2022-09-04T16:26:29.350Z,34.95
2022-09-04T16:31:35.787Z,36.52
2022-09-04T16:36:48.719Z,36.50
2022-09-04T16:41:59.182Z,36.28
2022-09-04T16:47:10.574Z,36.78
2022-09-04T16:52:45.668Z,35.58
2022-09-04T16:58:02.336Z,36.87
2022-09-04T17:03:34.333Z,35.60
2022-09-04T17:08:49.625Z,36.50
2022-09-04T17:13:58.978Z,36.66
2022-09-04T17:19:15.274Z,36.63
2022-09-04T17:29:02.125Z,36.35
2022-09-04T17:29:57.540Z,37.59
2022-09-04T17:40:41.685Z,37.69
2022-09-04T17:46:24.705Z,37.54
2022-09-04T17:51:32.128Z,38.84
2022-09-04T17:56:40.921Z,39.50
2022-09-04T18:01:52.420Z,41.46
2022-09-04T18:07:56.867Z,42.63
2022-09-04T18:12:38.956Z,42.75
2022-09-04T18:17:51.144Z,43.86
2022-09-04T18:23:17.701Z,45.25
2022-09-04T18:28:27.959Z,46.28
2022-09-04T18:37:26.902Z,46.74
2022-09-04T18:39:10.081Z,47.36
2022-09-04T18:50:23.163Z,47.84
2022-09-04T18:50:31.107Z,49.26
2022-09-04T18:55:18.406Z,50.74
2022-09-04T19:00:30.376Z,52.12
2022-09-04T19:05:44.767Z,53.23
2022-09-04T19:10:52.343Z,53.94
2022-09-04T19:16:02.918Z,54.92
2022-09-04T19:21:18.743Z,55.76
2022-09-04T19:26:34.898Z,56.26
2022-09-04T19:31:44.605Z,57.05
2022-09-04T19:36:52.994Z,58.06
2022-09-04T19:46:09.467Z,57.64
2022-09-04T19:47:46.936Z,58.19
2022-09-04T19:53:31.359Z,59.38
2022-09-04T19:58:20.020Z,60.54
2022-09-04T20:03:31.034Z,61.65
2022-09-04T20:08:41.790Z,61.02
2022-09-04T20:13:51.944Z,61.80
2022-09-04T20:19:01.444Z,62.49
2022-09-04T20:24:08.593Z,62.56
2022-09-04T20:29:19.626Z,62.95
2022-09-04T20:34:31.195Z,64.07
2022-09-04T20:39:43.794Z,64.51
2022-09-04T20:46:48.619Z,65.28
2022-09-04T20:52:51.379Z,65.24
2022-09-04T20:56:08.377Z,66.40
2022-09-04T21:03:18.784Z,66.24
2022-09-04T21:06:48.599Z,66.24
2022-09-04T21:11:54.653Z,66.68
2022-09-04T21:17:35.246Z,66.53
2022-09-04T21:23:04.184Z,67.54
2022-09-04T21:28:31.364Z,68.91
2022-09-04T21:33:42.612Z,68.22
2022-09-04T21:39:04.695Z,69.40
2022-09-04T21:44:55.840Z,68.60
2022-09-04T21:50:35.343Z,69.69
2022-09-04T21:59:15.413Z,69.79
2022-09-04T22:02:40.788Z,69.68
2022-09-04T22:08:20.472Z,69.70
2022-09-04T22:13:39.427Z,69.48
2022-09-04T22:18:21.706Z,69.45
2022-09-04T22:23:56.593Z,70.35
2022-09-04T22:29:35.378Z,69.84
2022-09-04T22:35:14.569Z,70.38
2022-09-04T22:40:33.467Z,70.26
2022-09-04T22:46:30.648Z,71.07
2022-09-04T22:51:47.941Z,70.14
2022-09-04T22:56:54.866Z,71.00
2022-09-04T23:03:04.065Z,71.73
2022-09-04T23:13:41.938Z,71.97
2022-09-04T23:14:07.749Z,72.01
2022-09-04T23:23:41.556Z,72.44
2022-09-04T23:26:47.343Z,72.67
2022-09-04T23:30:53.264Z,72.31
2022-09-04T23:36:04.058Z,73.01
2022-09-04T23:41:19.138Z,73.30
2022-09-04T23:46:38.623Z,73.81
2022-09-04T23:51:50.155Z,73.62
2022-09-04T23:57:00.804Z,74.39
